sensor_id;sensor_type;location;lat;lon;timestamp;P1;durP1;ratioP1;P2;durP2;ratioP2
11839;SDS011;5979;50.800;4.904;2023-08-24T00:02:10;4.45;;;3.40;;
11839;SDS011;5979;50.800;4.904;2023-08-24T00:04:37;4.07;;;3.78;;
11839;SDS011;5979;50.800;4.904;2023-08-24T00:07:03;3.63;;;3.33;;
11839;SDS011;5979;50.800;4.904;2023-08-24T00:09:28;3.85;;;3.60;;
11839;SDS011;5979;50.800;4.904;2023-08-24T00:11:54;3.65;;;3.40;;
11839;SDS011;5979;50.800;4.904;2023-08-24T00:14:20;4.43;;;3.90;;
11839;SDS011;5979;50.800;4.904;2023-08-24T00:16:46;4.57;;;3.60;;
11839;SDS011;5979;50.800;4.904;2023-08-24T00:19:11;4.10;;;3.80;;
11839;SDS011;5979;50.800;4.904;2023-08-24T00:21:37;4.57;;;4.28;;
11839;SDS011;5979;50.800;4.904;2023-08-24T00:24:03;5.07;;;3.95;;
11839;SDS011;5979;50.800;4.904;2023-08-24T00:26:28;4.70;;;4.30;;
11839;SDS011;5979;50.800;4.904;2023-08-24T00:28:54;4.22;;;3.97;;
11839;SDS011;5979;50.800;4.904;2023-08-24T00:31:20;5.07;;;4.43;;
11839;SDS011;5979;50.800;4.904;2023-08-24T00:33:46;3.78;;;3.47;;
11839;SDS011;5979;50.800;4.904;2023-08-24T00:36:11;4.38;;;4.03;;
11839;SDS011;5979;50.800;4.904;2023-08-24T00:38:37;7.47;;;4.75;;
11839;SDS011;5979;50.800;4.904;2023-08-24T00:41:03;4.65;;;4.20;;
11839;SDS011;5979;50.800;4.904;2023-08-24T00:43:28;4.75;;;4.28;;
11839;SDS011;5979;50.800;4.904;2023-08-24T00:45:59;5.03;;;4.60;;
11839;SDS011;5979;50.800;4.904;2023-08-24T00:48:26;4.82;;;4.32;;
11839;SDS011;5979;50.800;4.904;2023-08-24T00:50:54;5.50;;;4.68;;
11839;SDS011;5979;50.800;4.904;2023-08-24T00:53:20;6.68;;;5.22;;
11839;SDS011;5979;50.800;4.904;2023-08-24T00:55:50;4.88;;;4.38;;
11839;SDS011;5979;50.800;4.904;2023-08-24T00:58:16;5.78;;;4.97;;
11839;SDS011;5979;50.800;4.904;2023-08-24T01:00:43;6.57;;;5.97;;
11839;SDS011;5979;50.800;4.904;2023-08-24T01:03:09;6.22;;;5.50;;
11839;SDS011;5979;50.800;4.904;2023-08-24T01:05:35;4.85;;;4.53;;
11839;SDS011;5979;50.800;4.904;2023-08-24T01:08:01;5.47;;;5.07;;
11839;SDS011;5979;50.800;4.904;2023-08-24T01:10:28;5.13;;;4.63;;
11839;SDS011;5979;50.800;4.904;2023-08-24T01:13:08;4.88;;;4.45;;
11839;SDS011;5979;50.800;4.904;2023-08-24T01:15:42;6.03;;;5.53;;
11839;SDS011;5979;50.800;4.904;2023-08-24T01:18:33;5.20;;;4.70;;
11839;SDS011;5979;50.800;4.904;2023-08-24T01:21:01;5.40;;;4.97;;
11839;SDS011;5979;50.800;4.904;2023-08-24T01:23:31;6.03;;;5.40;;
11839;SDS011;5979;50.800;4.904;2023-08-24T01:26:19;5.00;;;4.60;;
11839;SDS011;5979;50.800;4.904;2023-08-24T01:28:46;6.25;;;4.88;;
11839;SDS011;5979;50.800;4.904;2023-08-24T01:31:16;4.25;;;4.05;;
11839;SDS011;5979;50.800;4.904;2023-08-24T01:33:42;4.95;;;4.55;;
11839;SDS011;5979;50.800;4.904;2023-08-24T01:36:09;5.32;;;4.82;;
11839;SDS011;5979;50.800;4.904;2023-08-24T01:38:37;5.13;;;4.63;;
11839;SDS011;5979;50.800;4.904;2023-08-24T01:41:17;5.50;;;5.00;;
11839;SDS011;5979;50.800;4.904;2023-08-24T01:43:54;5.00;;;4.60;;
11839;SDS011;5979;50.800;4.904;2023-08-24T01:46:24;5.40;;;4.93;;
11839;SDS011;5979;50.800;4.904;2023-08-24T01:48:50;4.80;;;4.43;;
11839;SDS011;5979;50.800;4.904;2023-08-24T01:51:17;4.38;;;4.07;;
11839;SDS011;5979;50.800;4.904;2023-08-24T01:53:44;5.57;;;5.03;;
11839;SDS011;5979;50.800;4.904;2023-08-24T01:56:11;5.07;;;4.68;;
11839;SDS011;5979;50.800;4.904;2023-08-24T01:58:37;4.65;;;4.35;;
11839;SDS011;5979;50.800;4.904;2023-08-24T02:01:04;6.28;;;5.47;;
11839;SDS011;5979;50.800;4.904;2023-08-24T02:03:30;5.32;;;4.93;;
11839;SDS011;5979;50.800;4.904;2023-08-24T02:05:56;5.30;;;4.80;;
11839;SDS011;5979;50.800;4.904;2023-08-24T02:08:22;5.43;;;4.93;;
11839;SDS011;5979;50.800;4.904;2023-08-24T02:10:47;5.75;;;5.35;;
11839;SDS011;5979;50.800;4.904;2023-08-24T02:13:13;6.65;;;5.38;;
11839;SDS011;5979;50.800;4.904;2023-08-24T02:15:39;6.30;;;5.70;;
11839;SDS011;5979;50.800;4.904;2023-08-24T02:18:05;5.28;;;4.78;;
11839;SDS011;5979;50.800;4.904;2023-08-24T02:20:34;5.55;;;5.05;;
11839;SDS011;5979;50.800;4.904;2023-08-24T02:23:00;6.07;;;5.55;;
11839;SDS011;5979;50.800;4.904;2023-08-24T02:25:26;5.05;;;4.65;;
11839;SDS011;5979;50.800;4.904;2023-08-24T02:27:52;5.03;;;4.65;;
11839;SDS011;5979;50.800;4.904;2023-08-24T02:30:18;7.20;;;6.53;;
11839;SDS011;5979;50.800;4.904;2023-08-24T02:32:43;6.43;;;5.82;;
11839;SDS011;5979;50.800;4.904;2023-08-24T02:35:09;6.88;;;6.28;;
11839;SDS011;5979;50.800;4.904;2023-08-24T02:37:35;8.65;;;7.93;;
11839;SDS011;5979;50.800;4.904;2023-08-24T02:40:00;8.75;;;7.70;;
11839;SDS011;5979;50.800;4.904;2023-08-24T02:42:26;9.82;;;8.00;;
11839;SDS011;5979;50.800;4.904;2023-08-24T02:44:55;9.23;;;8.27;;
11839;SDS011;5979;50.800;4.904;2023-08-24T02:47:20;12.10;;;8.57;;
11839;SDS011;5979;50.800;4.904;2023-08-24T02:49:46;12.32;;;9.02;;
11839;SDS011;5979;50.800;4.904;2023-08-24T02:52:12;10.38;;;8.77;;
11839;SDS011;5979;50.800;4.904;2023-08-24T02:54:37;13.70;;;9.75;;
11839;SDS011;5979;50.800;4.904;2023-08-24T02:57:03;12.43;;;10.45;;
11839;SDS011;5979;50.800;4.904;2023-08-24T02:59:28;14.07;;;10.75;;
11839;SDS011;5979;50.800;4.904;2023-08-24T03:01:54;12.07;;;10.77;;
11839;SDS011;5979;50.800;4.904;2023-08-24T03:04:20;13.68;;;10.98;;
11839;SDS011;5979;50.800;4.904;2023-08-24T03:06:46;10.52;;;9.32;;
11839;SDS011;5979;50.800;4.904;2023-08-24T03:09:12;10.07;;;9.07;;
11839;SDS011;5979;50.800;4.904;2023-08-24T03:11:37;10.60;;;8.70;;
11839;SDS011;5979;50.800;4.904;2023-08-24T03:14:03;11.05;;;9.90;;
11839;SDS011;5979;50.800;4.904;2023-08-24T03:16:29;10.27;;;8.88;;
11839;SDS011;5979;50.800;4.904;2023-08-24T03:18:55;10.63;;;9.05;;
11839;SDS011;5979;50.800;4.904;2023-08-24T03:21:20;9.88;;;8.88;;
11839;SDS011;5979;50.800;4.904;2023-08-24T03:23:46;9.65;;;8.80;;
11839;SDS011;5979;50.800;4.904;2023-08-24T03:26:12;11.38;;;9.05;;
11839;SDS011;5979;50.800;4.904;2023-08-24T03:28:38;9.98;;;8.98;;
11839;SDS011;5979;50.800;4.904;2023-08-24T03:31:03;11.15;;;9.93;;
11839;SDS011;5979;50.800;4.904;2023-08-24T03:33:31;9.82;;;8.45;;
11839;SDS011;5979;50.800;4.904;2023-08-24T03:35:58;10.05;;;8.60;;
11839;SDS011;5979;50.800;4.904;2023-08-24T03:38:23;9.00;;;8.30;;
11839;SDS011;5979;50.800;4.904;2023-08-24T03:40:49;13.80;;;10.07;;
11839;SDS011;5979;50.800;4.904;2023-08-24T03:43:15;10.90;;;9.68;;
11839;SDS011;5979;50.800;4.904;2023-08-24T03:45:41;12.02;;;10.18;;
11839;SDS011;5979;50.800;4.904;2023-08-24T03:48:08;10.90;;;9.40;;
11839;SDS011;5979;50.800;4.904;2023-08-24T03:50:33;11.63;;;10.43;;
11839;SDS011;5979;50.800;4.904;2023-08-24T03:52:59;11.35;;;9.65;;
11839;SDS011;5979;50.800;4.904;2023-08-24T03:55:25;12.48;;;9.65;;
11839;SDS011;5979;50.800;4.904;2023-08-24T03:57:50;10.50;;;9.38;;
11839;SDS011;5979;50.800;4.904;2023-08-24T04:00:16;11.60;;;10.50;;
11839;SDS011;5979;50.800;4.904;2023-08-24T04:02:42;10.90;;;9.68;;
11839;SDS011;5979;50.800;4.904;2023-08-24T04:05:08;11.15;;;10.07;;
11839;SDS011;5979;50.800;4.904;2023-08-24T04:07:34;11.63;;;9.63;;
11839;SDS011;5979;50.800;4.904;2023-08-24T04:10:03;10.23;;;9.07;;
11839;SDS011;5979;50.800;4.904;2023-08-24T04:12:30;10.80;;;9.30;;
11839;SDS011;5979;50.800;4.904;2023-08-24T04:14:56;10.20;;;9.30;;
11839;SDS011;5979;50.800;4.904;2023-08-24T04:17:22;12.90;;;10.07;;
11839;SDS011;5979;50.800;4.904;2023-08-24T04:19:48;11.50;;;9.50;;
11839;SDS011;5979;50.800;4.904;2023-08-24T04:22:15;13.88;;;10.27;;
11839;SDS011;5979;50.800;4.904;2023-08-24T04:24:41;10.75;;;9.65;;
11839;SDS011;5979;50.800;4.904;2023-08-24T04:27:06;10.50;;;9.40;;
11839;SDS011;5979;50.800;4.904;2023-08-24T04:29:32;9.05;;;8.15;;
11839;SDS011;5979;50.800;4.904;2023-08-24T04:31:57;8.32;;;7.53;;
11839;SDS011;5979;50.800;4.904;2023-08-24T04:34:23;8.63;;;7.78;;
11839;SDS011;5979;50.800;4.904;2023-08-24T04:36:49;7.85;;;7.07;;
11839;SDS011;5979;50.800;4.904;2023-08-24T04:39:14;8.70;;;7.90;;
11839;SDS011;5979;50.800;4.904;2023-08-24T04:41:40;8.10;;;7.40;;
11839;SDS011;5979;50.800;4.904;2023-08-24T04:44:06;9.10;;;8.20;;
11839;SDS011;5979;50.800;4.904;2023-08-24T04:46:33;7.93;;;7.05;;
11839;SDS011;5979;50.800;4.904;2023-08-24T04:48:59;8.10;;;7.20;;
11839;SDS011;5979;50.800;4.904;2023-08-24T04:51:24;8.00;;;7.30;;
11839;SDS011;5979;50.800;4.904;2023-08-24T04:53:52;7.93;;;7.20;;
11839;SDS011;5979;50.800;4.904;2023-08-24T04:56:18;7.65;;;7.00;;
11839;SDS011;5979;50.800;4.904;2023-08-24T04:58:57;7.72;;;7.10;;
11839;SDS011;5979;50.800;4.904;2023-08-24T05:01:23;8.40;;;7.50;;
11839;SDS011;5979;50.800;4.904;2023-08-24T05:03:50;11.52;;;7.40;;
11839;SDS011;5979;50.800;4.904;2023-08-24T05:06:17;10.48;;;8.15;;
11839;SDS011;5979;50.800;4.904;2023-08-24T05:08:43;11.27;;;8.98;;
11839;SDS011;5979;50.800;4.904;2023-08-24T05:11:27;9.48;;;8.57;;
11839;SDS011;5979;50.800;4.904;2023-08-24T05:13:56;8.63;;;7.75;;
11839;SDS011;5979;50.800;4.904;2023-08-24T05:16:22;10.80;;;8.10;;
11839;SDS011;5979;50.800;4.904;2023-08-24T05:18:48;9.43;;;8.40;;
11839;SDS011;5979;50.800;4.904;2023-08-24T05:21:13;11.70;;;8.70;;
11839;SDS011;5979;50.800;4.904;2023-08-24T05:23:39;10.02;;;8.52;;
11839;SDS011;5979;50.800;4.904;2023-08-24T05:26:05;9.23;;;8.35;;
11839;SDS011;5979;50.800;4.904;2023-08-24T05:28:31;8.30;;;7.50;;
11839;SDS011;5979;50.800;4.904;2023-08-24T05:30:57;8.98;;;7.93;;
11839;SDS011;5979;50.800;4.904;2023-08-24T05:33:23;8.25;;;7.43;;
11839;SDS011;5979;50.800;4.904;2023-08-24T05:35:50;7.47;;;6.70;;
11839;SDS011;5979;50.800;4.904;2023-08-24T05:38:16;8.95;;;7.68;;
11839;SDS011;5979;50.800;4.904;2023-08-24T05:40:42;9.50;;;8.70;;
11839;SDS011;5979;50.800;4.904;2023-08-24T05:43:11;9.32;;;8.32;;
11839;SDS011;5979;50.800;4.904;2023-08-24T05:45:37;9.10;;;8.20;;
11839;SDS011;5979;50.800;4.904;2023-08-24T05:48:05;8.20;;;7.53;;
11839;SDS011;5979;50.800;4.904;2023-08-24T05:50:31;8.30;;;7.72;;
11839;SDS011;5979;50.800;4.904;2023-08-24T05:52:57;8.68;;;7.95;;
11839;SDS011;5979;50.800;4.904;2023-08-24T05:55:22;8.32;;;7.55;;
11839;SDS011;5979;50.800;4.904;2023-08-24T05:57:48;9.25;;;7.97;;
11839;SDS011;5979;50.800;4.904;2023-08-24T06:00:14;8.77;;;7.07;;
11839;SDS011;5979;50.800;4.904;2023-08-24T06:02:41;8.52;;;6.60;;
11839;SDS011;5979;50.800;4.904;2023-08-24T06:05:07;8.70;;;7.22;;
11839;SDS011;5979;50.800;4.904;2023-08-24T06:07:32;8.73;;;7.82;;
11839;SDS011;5979;50.800;4.904;2023-08-24T06:10:00;10.60;;;8.23;;
11839;SDS011;5979;50.800;4.904;2023-08-24T06:12:25;9.60;;;8.27;;
11839;SDS011;5979;50.800;4.904;2023-08-24T06:14:51;8.98;;;8.07;;
11839;SDS011;5979;50.800;4.904;2023-08-24T06:17:17;8.00;;;7.30;;
11839;SDS011;5979;50.800;4.904;2023-08-24T06:19:42;7.03;;;6.47;;
11839;SDS011;5979;50.800;4.904;2023-08-24T06:22:08;7.43;;;6.45;;
11839;SDS011;5979;50.800;4.904;2023-08-24T06:24:34;10.15;;;7.38;;
11839;SDS011;5979;50.800;4.904;2023-08-24T06:27:00;8.93;;;8.02;;
11839;SDS011;5979;50.800;4.904;2023-08-24T06:29:27;14.65;;;8.93;;
11839;SDS011;5979;50.800;4.904;2023-08-24T06:31:55;12.45;;;8.85;;
11839;SDS011;5979;50.800;4.904;2023-08-24T06:34:21;11.05;;;8.05;;
11839;SDS011;5979;50.800;4.904;2023-08-24T06:36:47;8.32;;;7.68;;
11839;SDS011;5979;50.800;4.904;2023-08-24T06:39:13;14.77;;;8.18;;
11839;SDS011;5979;50.800;4.904;2023-08-24T06:41:38;9.55;;;8.63;;
11839;SDS011;5979;50.800;4.904;2023-08-24T06:44:04;9.23;;;8.18;;
11839;SDS011;5979;50.800;4.904;2023-08-24T06:46:30;10.15;;;8.25;;
11839;SDS011;5979;50.800;4.904;2023-08-24T06:48:56;9.43;;;7.78;;
11839;SDS011;5979;50.800;4.904;2023-08-24T06:51:22;11.10;;;7.78;;
11839;SDS011;5979;50.800;4.904;2023-08-24T06:53:48;9.00;;;7.57;;
11839;SDS011;5979;50.800;4.904;2023-08-24T06:56:13;9.85;;;8.10;;
11839;SDS011;5979;50.800;4.904;2023-08-24T06:58:43;9.13;;;8.18;;
11839;SDS011;5979;50.800;4.904;2023-08-24T07:01:10;8.25;;;7.50;;
11839;SDS011;5979;50.800;4.904;2023-08-24T07:03:36;7.75;;;7.05;;
11839;SDS011;5979;50.800;4.904;2023-08-24T07:06:02;7.78;;;6.95;;
11839;SDS011;5979;50.800;4.904;2023-08-24T07:08:30;7.57;;;6.78;;
11839;SDS011;5979;50.800;4.904;2023-08-24T07:10:55;9.35;;;7.32;;
11839;SDS011;5979;50.800;4.904;2023-08-24T07:13:21;7.72;;;6.97;;
11839;SDS011;5979;50.800;4.904;2023-08-24T07:15:47;7.45;;;6.75;;
11839;SDS011;5979;50.800;4.904;2023-08-24T07:18:12;7.53;;;7.03;;
11839;SDS011;5979;50.800;4.904;2023-08-24T07:20:38;7.50;;;6.80;;
11839;SDS011;5979;50.800;4.904;2023-08-24T07:23:04;6.93;;;6.20;;
11839;SDS011;5979;50.800;4.904;2023-08-24T07:25:29;6.38;;;5.57;;
11839;SDS011;5979;50.800;4.904;2023-08-24T07:27:55;6.78;;;6.07;;
11839;SDS011;5979;50.800;4.904;2023-08-24T07:30:25;5.82;;;5.22;;
11839;SDS011;5979;50.800;4.904;2023-08-24T07:32:52;8.20;;;6.22;;
11839;SDS011;5979;50.800;4.904;2023-08-24T07:35:21;6.63;;;4.80;;
11839;SDS011;5979;50.800;4.904;2023-08-24T07:37:49;6.68;;;5.90;;
11839;SDS011;5979;50.800;4.904;2023-08-24T07:40:16;5.53;;;5.03;;
11839;SDS011;5979;50.800;4.904;2023-08-24T07:42:43;5.38;;;4.88;;
11839;SDS011;5979;50.800;4.904;2023-08-24T07:45:13;4.75;;;4.45;;
11839;SDS011;5979;50.800;4.904;2023-08-24T07:47:39;5.03;;;4.63;;
11839;SDS011;5979;50.800;4.904;2023-08-24T07:50:06;4.70;;;4.30;;
11839;SDS011;5979;50.800;4.904;2023-08-24T07:52:33;4.05;;;3.75;;
11839;SDS011;5979;50.800;4.904;2023-08-24T07:54:59;4.07;;;3.70;;
11839;SDS011;5979;50.800;4.904;2023-08-24T07:57:28;4.20;;;3.42;;
11839;SDS011;5979;50.800;4.904;2023-08-24T07:59:54;5.28;;;3.65;;
11839;SDS011;5979;50.800;4.904;2023-08-24T08:02:19;3.35;;;3.05;;
11839;SDS011;5979;50.800;4.904;2023-08-24T08:04:45;4.80;;;3.58;;
11839;SDS011;5979;50.800;4.904;2023-08-24T08:07:11;5.55;;;3.80;;
11839;SDS011;5979;50.800;4.904;2023-08-24T08:09:37;3.53;;;3.22;;
11839;SDS011;5979;50.800;4.904;2023-08-24T08:12:03;6.53;;;3.50;;
11839;SDS011;5979;50.800;4.904;2023-08-24T08:14:29;6.10;;;4.18;;
11839;SDS011;5979;50.800;4.904;2023-08-24T08:16:58;3.75;;;3.53;;
11839;SDS011;5979;50.800;4.904;2023-08-24T08:19:24;4.38;;;3.60;;
11839;SDS011;5979;50.800;4.904;2023-08-24T08:21:53;6.57;;;4.82;;
11839;SDS011;5979;50.800;4.904;2023-08-24T08:24:18;4.82;;;3.92;;
11839;SDS011;5979;50.800;4.904;2023-08-24T08:26:44;4.22;;;3.75;;
11839;SDS011;5979;50.800;4.904;2023-08-24T08:29:10;3.95;;;3.55;;
11839;SDS011;5979;50.800;4.904;2023-08-24T08:31:35;3.83;;;3.40;;
11839;SDS011;5979;50.800;4.904;2023-08-24T08:34:01;4.30;;;3.90;;
11839;SDS011;5979;50.800;4.904;2023-08-24T08:36:29;3.70;;;3.40;;
11839;SDS011;5979;50.800;4.904;2023-08-24T08:38:57;4.13;;;3.72;;
11839;SDS011;5979;50.800;4.904;2023-08-24T08:41:23;4.13;;;3.60;;
11839;SDS011;5979;50.800;4.904;2023-08-24T08:43:53;4.40;;;4.00;;
11839;SDS011;5979;50.800;4.904;2023-08-24T08:46:19;4.03;;;3.63;;
11839;SDS011;5979;50.800;4.904;2023-08-24T08:48:46;4.03;;;3.58;;
11839;SDS011;5979;50.800;4.904;2023-08-24T08:51:14;3.88;;;3.58;;
11839;SDS011;5979;50.800;4.904;2023-08-24T08:53:42;4.32;;;3.88;;
11839;SDS011;5979;50.800;4.904;2023-08-24T08:56:08;4.18;;;3.72;;
11839;SDS011;5979;50.800;4.904;2023-08-24T08:58:34;5.88;;;3.60;;
11839;SDS011;5979;50.800;4.904;2023-08-24T09:01:04;4.85;;;3.53;;
11839;SDS011;5979;50.800;4.904;2023-08-24T09:03:30;4.00;;;3.70;;
11839;SDS011;5979;50.800;4.904;2023-08-24T09:05:57;6.70;;;3.97;;
11839;SDS011;5979;50.800;4.904;2023-08-24T09:08:24;3.90;;;3.55;;
11839;SDS011;5979;50.800;4.904;2023-08-24T09:10:51;5.40;;;4.00;;
11839;SDS011;5979;50.800;4.904;2023-08-24T09:13:17;3.55;;;3.25;;
11839;SDS011;5979;50.800;4.904;2023-08-24T09:15:43;3.75;;;3.45;;
11839;SDS011;5979;50.800;4.904;2023-08-24T09:18:08;6.78;;;3.90;;
11839;SDS011;5979;50.800;4.904;2023-08-24T09:20:34;4.82;;;3.58;;
11839;SDS011;5979;50.800;4.904;2023-08-24T09:23:01;3.88;;;3.50;;
11839;SDS011;5979;50.800;4.904;2023-08-24T09:25:26;4.00;;;3.67;;
11839;SDS011;5979;50.800;4.904;2023-08-24T09:28:02;3.53;;;3.22;;
11839;SDS011;5979;50.800;4.904;2023-08-24T09:30:32;3.47;;;3.15;;
11839;SDS011;5979;50.800;4.904;2023-08-24T09:33:03;4.78;;;3.92;;
11839;SDS011;5979;50.800;4.904;2023-08-24T09:35:33;6.63;;;3.80;;
11839;SDS011;5979;50.800;4.904;2023-08-24T09:38:00;4.70;;;3.80;;
11839;SDS011;5979;50.800;4.904;2023-08-24T09:40:26;6.07;;;3.80;;
11839;SDS011;5979;50.800;4.904;2023-08-24T09:42:52;3.65;;;3.42;;
11839;SDS011;5979;50.800;4.904;2023-08-24T09:45:17;3.65;;;3.35;;
11839;SDS011;5979;50.800;4.904;2023-08-24T09:47:49;3.83;;;3.53;;
11839;SDS011;5979;50.800;4.904;2023-08-24T09:50:16;5.35;;;4.38;;
11839;SDS011;5979;50.800;4.904;2023-08-24T09:52:42;4.70;;;4.22;;
11839;SDS011;5979;50.800;4.904;2023-08-24T09:55:08;6.38;;;4.60;;
11839;SDS011;5979;50.800;4.904;2023-08-24T09:57:37;4.32;;;4.03;;
11839;SDS011;5979;50.800;4.904;2023-08-24T10:00:07;5.85;;;4.63;;
11839;SDS011;5979;50.800;4.904;2023-08-24T10:02:43;5.43;;;4.75;;
11839;SDS011;5979;50.800;4.904;2023-08-24T10:05:15;6.00;;;4.22;;
11839;SDS011;5979;50.800;4.904;2023-08-24T10:07:47;5.47;;;4.95;;
11839;SDS011;5979;50.800;4.904;2023-08-24T10:10:18;7.00;;;5.45;;
11839;SDS011;5979;50.800;4.904;2023-08-24T10:12:46;8.38;;;5.47;;
11839;SDS011;5979;50.800;4.904;2023-08-24T10:15:15;5.93;;;5.43;;
11839;SDS011;5979;50.800;4.904;2023-08-24T10:17:43;6.13;;;5.53;;
11839;SDS011;5979;50.800;4.904;2023-08-24T10:20:10;8.00;;;6.03;;
11839;SDS011;5979;50.800;4.904;2023-08-24T10:22:36;6.78;;;5.80;;
11839;SDS011;5979;50.800;4.904;2023-08-24T10:25:05;7.32;;;6.55;;
11839;SDS011;5979;50.800;4.904;2023-08-24T10:27:37;6.97;;;5.47;;
11839;SDS011;5979;50.800;4.904;2023-08-24T10:30:08;8.07;;;6.03;;
11839;SDS011;5979;50.800;4.904;2023-08-24T10:32:38;6.63;;;6.05;;
11839;SDS011;5979;50.800;4.904;2023-08-24T10:35:06;6.97;;;6.07;;
11839;SDS011;5979;50.800;4.904;2023-08-24T10:37:32;8.00;;;6.32;;
11839;SDS011;5979;50.800;4.904;2023-08-24T10:39:59;7.00;;;6.30;;
11839;SDS011;5979;50.800;4.904;2023-08-24T10:42:25;9.25;;;6.03;;
11839;SDS011;5979;50.800;4.904;2023-08-24T10:44:51;10.35;;;6.13;;
11839;SDS011;5979;50.800;4.904;2023-08-24T10:47:18;8.23;;;5.97;;
11839;SDS011;5979;50.800;4.904;2023-08-24T10:52:26;9.45;;;6.60;;
11839;SDS011;5979;50.800;4.904;2023-08-24T10:54:55;6.93;;;5.93;;
11839;SDS011;5979;50.800;4.904;2023-08-24T10:57:22;10.82;;;6.95;;
11839;SDS011;5979;50.800;4.904;2023-08-24T11:02:47;6.82;;;6.15;;
11839;SDS011;5979;50.800;4.904;2023-08-24T11:05:20;8.00;;;6.97;;
11839;SDS011;5979;50.800;4.904;2023-08-24T11:07:47;8.57;;;7.68;;
11839;SDS011;5979;50.800;4.904;2023-08-24T11:10:14;10.48;;;8.00;;
11839;SDS011;5979;50.800;4.904;2023-08-24T11:15:31;9.65;;;8.65;;
11839;SDS011;5979;50.800;4.904;2023-08-24T11:18:11;9.73;;;8.70;;
11839;SDS011;5979;50.800;4.904;2023-08-24T11:23:19;9.23;;;8.38;;
11839;SDS011;5979;50.800;4.904;2023-08-24T11:25:45;9.18;;;8.27;;
11839;SDS011;5979;50.800;4.904;2023-08-24T11:28:16;9.30;;;8.40;;
11839;SDS011;5979;50.800;4.904;2023-08-24T11:30:46;8.70;;;8.00;;
11839;SDS011;5979;50.800;4.904;2023-08-24T11:33:12;8.38;;;7.47;;
11839;SDS011;5979;50.800;4.904;2023-08-24T11:35:40;7.63;;;6.93;;
11839;SDS011;5979;50.800;4.904;2023-08-24T11:38:09;9.20;;;7.97;;
11839;SDS011;5979;50.800;4.904;2023-08-24T11:40:35;7.57;;;6.88;;
11839;SDS011;5979;50.800;4.904;2023-08-24T11:43:00;9.13;;;7.78;;
11839;SDS011;5979;50.800;4.904;2023-08-24T11:45:30;6.85;;;6.32;;
11839;SDS011;5979;50.800;4.904;2023-08-24T11:47:59;7.75;;;7.05;;
11839;SDS011;5979;50.800;4.904;2023-08-24T11:50:29;7.53;;;6.82;;
11839;SDS011;5979;50.800;4.904;2023-08-24T11:52:55;7.10;;;5.85;;
11839;SDS011;5979;50.800;4.904;2023-08-24T11:55:22;8.05;;;6.00;;
11839;SDS011;5979;50.800;4.904;2023-08-24T11:57:48;6.18;;;5.68;;
11839;SDS011;5979;50.800;4.904;2023-08-24T12:00:14;6.63;;;5.78;;
11839;SDS011;5979;50.800;4.904;2023-08-24T12:02:41;6.53;;;5.45;;
11839;SDS011;5979;50.800;4.904;2023-08-24T12:05:07;6.47;;;5.47;;
11839;SDS011;5979;50.800;4.904;2023-08-24T12:07:44;6.90;;;5.97;;
11839;SDS011;5979;50.800;4.904;2023-08-24T12:10:10;6.05;;;5.45;;
11839;SDS011;5979;50.800;4.904;2023-08-24T12:12:37;6.65;;;5.55;;
11839;SDS011;5979;50.800;4.904;2023-08-24T12:15:03;6.35;;;5.75;;
11839;SDS011;5979;50.800;4.904;2023-08-24T12:17:30;5.22;;;4.93;;
11839;SDS011;5979;50.800;4.904;2023-08-24T12:20:07;7.28;;;5.47;;
11839;SDS011;5979;50.800;4.904;2023-08-24T12:22:37;5.78;;;5.30;;
11839;SDS011;5979;50.800;4.904;2023-08-24T12:25:03;9.02;;;5.53;;
11839;SDS011;5979;50.800;4.904;2023-08-24T12:27:30;6.55;;;5.95;;
11839;SDS011;5979;50.800;4.904;2023-08-24T12:30:00;6.88;;;5.20;;
11839;SDS011;5979;50.800;4.904;2023-08-24T12:32:30;6.60;;;6.00;;
11839;SDS011;5979;50.800;4.904;2023-08-24T12:35:10;5.95;;;5.25;;
11839;SDS011;5979;50.800;4.904;2023-08-24T12:37:37;5.85;;;5.35;;
11839;SDS011;5979;50.800;4.904;2023-08-24T12:40:03;4.88;;;4.55;;
11839;SDS011;5979;50.800;4.904;2023-08-24T12:42:32;5.13;;;4.63;;
11839;SDS011;5979;50.800;4.904;2023-08-24T12:44:58;5.85;;;5.25;;
11839;SDS011;5979;50.800;4.904;2023-08-24T12:47:24;6.30;;;5.57;;
11839;SDS011;5979;50.800;4.904;2023-08-24T12:49:50;5.82;;;5.18;;
11839;SDS011;5979;50.800;4.904;2023-08-24T12:52:17;5.47;;;4.97;;
11839;SDS011;5979;50.800;4.904;2023-08-24T12:54:43;5.55;;;5.07;;
11839;SDS011;5979;50.800;4.904;2023-08-24T12:57:09;6.75;;;5.10;;
11839;SDS011;5979;50.800;4.904;2023-08-24T12:59:35;4.78;;;4.20;;
11839;SDS011;5979;50.800;4.904;2023-08-24T13:02:00;5.60;;;4.35;;
11839;SDS011;5979;50.800;4.904;2023-08-24T13:04:26;4.55;;;4.10;;
11839;SDS011;5979;50.800;4.904;2023-08-24T13:06:57;4.35;;;4.05;;
11839;SDS011;5979;50.800;4.904;2023-08-24T13:09:23;4.85;;;3.80;;
11839;SDS011;5979;50.800;4.904;2023-08-24T13:11:49;4.38;;;3.97;;
11839;SDS011;5979;50.800;4.904;2023-08-24T13:14:15;4.90;;;3.92;;
11839;SDS011;5979;50.800;4.904;2023-08-24T13:16:40;4.40;;;3.65;;
11839;SDS011;5979;50.800;4.904;2023-08-24T13:19:06;3.33;;;3.13;;
11839;SDS011;5979;50.800;4.904;2023-08-24T13:21:32;3.78;;;3.53;;
11839;SDS011;5979;50.800;4.904;2023-08-24T13:23:58;3.70;;;3.40;;
11839;SDS011;5979;50.800;4.904;2023-08-24T13:26:24;4.78;;;3.83;;
11839;SDS011;5979;50.800;4.904;2023-08-24T13:28:50;4.72;;;4.10;;
11839;SDS011;5979;50.800;4.904;2023-08-24T13:31:16;3.97;;;3.60;;
11839;SDS011;5979;50.800;4.904;2023-08-24T13:33:43;3.40;;;3.10;;
11839;SDS011;5979;50.800;4.904;2023-08-24T13:36:09;3.97;;;3.42;;
11839;SDS011;5979;50.800;4.904;2023-08-24T13:38:35;4.18;;;3.38;;
11839;SDS011;5979;50.800;4.904;2023-08-24T13:41:01;4.95;;;3.00;;
11839;SDS011;5979;50.800;4.904;2023-08-24T13:43:28;3.45;;;2.90;;
11839;SDS011;5979;50.800;4.904;2023-08-24T13:45:54;2.47;;;2.38;;
11839;SDS011;5979;50.800;4.904;2023-08-24T13:48:20;4.78;;;2.85;;
11839;SDS011;5979;50.800;4.904;2023-08-24T13:50:52;3.20;;;2.90;;
11839;SDS011;5979;50.800;4.904;2023-08-24T13:53:18;2.78;;;2.58;;
11839;SDS011;5979;50.800;4.904;2023-08-24T13:55:44;4.95;;;2.92;;
11839;SDS011;5979;50.800;4.904;2023-08-24T13:58:09;4.65;;;2.50;;
11839;SDS011;5979;50.800;4.904;2023-08-24T14:00:36;2.80;;;2.33;;
11839;SDS011;5979;50.800;4.904;2023-08-24T14:03:02;2.70;;;2.17;;
11839;SDS011;5979;50.800;4.904;2023-08-24T14:05:28;2.35;;;2.15;;
11839;SDS011;5979;50.800;4.904;2023-08-24T14:07:54;3.42;;;2.15;;
11839;SDS011;5979;50.800;4.904;2023-08-24T14:10:19;3.00;;;2.42;;
11839;SDS011;5979;50.800;4.904;2023-08-24T14:12:45;4.00;;;2.45;;
11839;SDS011;5979;50.800;4.904;2023-08-24T14:15:11;2.15;;;1.95;;
11839;SDS011;5979;50.800;4.904;2023-08-24T14:17:37;2.88;;;2.20;;
11839;SDS011;5979;50.800;4.904;2023-08-24T14:20:02;2.95;;;2.40;;
11839;SDS011;5979;50.800;4.904;2023-08-24T14:22:29;2.22;;;2.10;;
11839;SDS011;5979;50.800;4.904;2023-08-24T14:24:55;3.25;;;2.22;;
11839;SDS011;5979;50.800;4.904;2023-08-24T14:27:20;4.63;;;2.03;;
11839;SDS011;5979;50.800;4.904;2023-08-24T14:29:46;4.45;;;2.25;;
11839;SDS011;5979;50.800;4.904;2023-08-24T14:32:12;3.38;;;2.00;;
11839;SDS011;5979;50.800;4.904;2023-08-24T14:34:38;3.78;;;2.10;;
11839;SDS011;5979;50.800;4.904;2023-08-24T14:37:03;3.88;;;1.92;;
11839;SDS011;5979;50.800;4.904;2023-08-24T14:39:29;3.80;;;1.92;;
11839;SDS011;5979;50.800;4.904;2023-08-24T14:41:55;2.83;;;1.65;;
11839;SDS011;5979;50.800;4.904;2023-08-24T14:44:20;4.40;;;1.92;;
11839;SDS011;5979;50.800;4.904;2023-08-24T14:46:46;4.75;;;1.80;;
11839;SDS011;5979;50.800;4.904;2023-08-24T14:49:12;3.25;;;1.60;;
11839;SDS011;5979;50.800;4.904;2023-08-24T14:51:43;2.00;;;1.90;;
11839;SDS011;5979;50.800;4.904;2023-08-24T14:54:09;2.45;;;1.70;;
11839;SDS011;5979;50.800;4.904;2023-08-24T14:56:37;1.67;;;1.52;;
11839;SDS011;5979;50.800;4.904;2023-08-24T14:59:02;1.63;;;1.52;;
11839;SDS011;5979;50.800;4.904;2023-08-24T15:01:28;2.03;;;1.80;;
11839;SDS011;5979;50.800;4.904;2023-08-24T15:03:54;1.80;;;1.70;;
11839;SDS011;5979;50.800;4.904;2023-08-24T15:06:20;3.83;;;1.92;;
11839;SDS011;5979;50.800;4.904;2023-08-24T15:08:46;3.65;;;1.88;;